sensor_id;sensor_type;location;lat;lon;timestamp;pressure;altitude;pressure_sealevel;temperature;humidity
77526;BME280;66627;29.424;-98.496;2023-02-01T00:01:34;99859.37;;;0.63;51.76
77526;BME280;66627;29.424;-98.496;2023-02-01T00:03:59;99859.78;;;0.77;51.47
77526;BME280;66627;29.424;-98.496;2023-02-01T00:06:25;99861.57;;;0.82;51.56
77526;BME280;66627;29.424;-98.496;2023-02-01T00:08:52;99868.02;;;1.11;50.95
77526;BME280;66627;29.424;-98.496;2023-02-01T00:11:14;99871.40;;;0.25;51.41
77526;BME280;66627;29.424;-98.496;2023-02-01T00:13:41;99868.20;;;0.78;51.96
77526;BME280;66627;29.424;-98.496;2023-02-01T00:16:07;99878.43;;;0.57;51.74
77526;BME280;66627;29.424;-98.496;2023-02-01T00:18:31;99881.47;;;1.12;51.26
77526;BME280;66627;29.424;-98.496;2023-02-01T00:20:56;99888.01;;;-0.16;52.60
77526;BME280;66627;29.424;-98.496;2023-02-01T00:23:22;99884.97;;;0.75;51.82
77526;BME280;66627;29.424;-98.496;2023-02-01T00:25:47;99883.39;;;0.95;52.22
77526;BME280;66627;29.424;-98.496;2023-02-01T00:28:12;99878.43;;;0.72;51.06
77526;BME280;66627;29.424;-98.496;2023-02-01T00:30:37;99882.90;;;1.09;50.59
77526;BME280;66627;29.424;-98.496;2023-02-01T00:33:03;99884.71;;;0.46;52.34
77526;BME280;66627;29.424;-98.496;2023-02-01T00:35:28;99884.19;;;0.66;50.59
77526;BME280;66627;29.424;-98.496;2023-02-01T00:37:54;99885.05;;;0.12;51.23
77526;BME280;66627;29.424;-98.496;2023-02-01T00:40:19;99886.86;;;0.50;50.43
77526;BME280;66627;29.424;-98.496;2023-02-01T00:42:44;99888.75;;;0.28;51.60
77526;BME280;66627;29.424;-98.496;2023-02-01T00:45:11;99884.50;;;0.96;50.60
77526;BME280;66627;29.424;-98.496;2023-02-01T00:47:35;99887.20;;;0.17;51.34
77526;BME280;66627;29.424;-98.496;2023-02-01T00:50:00;99887.11;;;-0.05;51.55
77526;BME280;66627;29.424;-98.496;2023-02-01T00:52:26;99890.62;;;0.82;50.99
77526;BME280;66627;29.424;-98.496;2023-02-01T00:54:51;99891.83;;;0.52;50.89
77526;BME280;66627;29.424;-98.496;2023-02-01T00:57:16;99893.60;;;0.57;51.61
77526;BME280;66627;29.424;-98.496;2023-02-01T00:59:42;99891.90;;;0.03;50.93
77526;BME280;66627;29.424;-98.496;2023-02-01T01:02:07;99896.05;;;0.67;51.23
77526;BME280;66627;29.424;-98.496;2023-02-01T01:04:32;99900.94;;;0.79;49.96
77526;BME280;66627;29.424;-98.496;2023-02-01T01:06:57;99905.03;;;-0.10;50.83
77526;BME280;66627;29.424;-98.496;2023-02-01T01:09:22;99915.33;;;0.29;51.22
77526;BME280;66627;29.424;-98.496;2023-02-01T01:11:48;99921.10;;;0.26;51.71
77526;BME280;66627;29.424;-98.496;2023-02-01T01:14:13;99926.05;;;0.74;51.70
77526;BME280;66627;29.424;-98.496;2023-02-01T01:16:39;99924.68;;;0.43;50.61
77526;BME280;66627;29.424;-98.496;2023-02-01T01:19:04;99926.21;;;0.48;50.43
77526;BME280;66627;29.424;-98.496;2023-02-01T01:21:30;99925.44;;;0.96;49.71
77526;BME280;66627;29.424;-98.496;2023-02-01T01:23:55;99925.22;;;0.88;50.56
77526;BME280;66627;29.424;-98.496;2023-02-01T01:26:22;99925.78;;;-0.17;51.74
77526;BME280;66627;29.424;-98.496;2023-02-01T01:28:46;99917.52;;;-0.06;52.00
77526;BME280;66627;29.424;-98.496;2023-02-01T01:31:12;99905.39;;;-0.45;52.91
77526;BME280;66627;29.424;-98.496;2023-02-01T01:33:37;99900.60;;;-0.83;52.05
77526;BME280;66627;29.424;-98.496;2023-02-01T01:36:04;99902.34;;;-0.45;52.20
77526;BME280;66627;29.424;-98.496;2023-02-01T01:38:27;99901.46;;;-0.68;53.32
77526;BME280;66627;29.424;-98.496;2023-02-01T01:40:53;99910.83;;;-0.26;53.13
77526;BME280;66627;29.424;-98.496;2023-02-01T01:43:21;99919.34;;;-0.00;53.00
77526;BME280;66627;29.424;-98.496;2023-02-01T01:45:44;99926.26;;;0.45;51.75
77526;BME280;66627;29.424;-98.496;2023-02-01T01:48:13;99944.76;;;0.46;52.10
77526;BME280;66627;29.424;-98.496;2023-02-01T01:50:37;99955.87;;;0.08;51.43
77526;BME280;66627;29.424;-98.496;2023-02-01T01:53:02;99970.21;;;0.12;51.74
77526;BME280;66627;29.424;-98.496;2023-02-01T01:55:26;99984.64;;;0.42;51.58
77526;BME280;66627;29.424;-98.496;2023-02-01T01:57:55;99975.85;;;-0.52;52.34
77526;BME280;66627;29.424;-98.496;2023-02-01T02:00:17;99985.30;;;-0.54;52.37
77526;BME280;66627;29.424;-98.496;2023-02-01T02:02:42;99986.93;;;-0.61;52.06
77526;BME280;66627;29.424;-98.496;2023-02-01T02:05:06;99989.10;;;-0.34;53.31
77526;BME280;66627;29.424;-98.496;2023-02-01T02:07:36;99984.52;;;-0.08;51.81
77526;BME280;66627;29.424;-98.496;2023-02-01T02:09:57;99993.74;;;0.22;51.94
77526;BME280;66627;29.424;-98.496;2023-02-01T02:12:22;99989.99;;;0.44;51.25
77526;BME280;66627;29.424;-98.496;2023-02-01T02:14:48;99980.36;;;0.22;50.53
77526;BME280;66627;29.424;-98.496;2023-02-01T02:17:25;99971.02;;;-0.08;51.03
77526;BME280;66627;29.424;-98.496;2023-02-01T02:19:54;99979.84;;;-0.30;51.36
77526;BME280;66627;29.424;-98.496;2023-02-01T02:24:44;99981.35;;;0.06;51.04
77526;BME280;66627;29.424;-98.496;2023-02-01T02:27:03;99970.53;;;-0.34;51.76
77526;BME280;66627;29.424;-98.496;2023-02-01T02:29:37;99971.49;;;-0.03;51.63
77526;BME280;66627;29.424;-98.496;2023-02-01T02:32:01;99976.22;;;0.33;50.71
77526;BME280;66627;29.424;-98.496;2023-02-01T02:34:15;99974.46;;;0.27;50.60
77526;BME280;66627;29.424;-98.496;2023-02-01T02:36:45;99982.64;;;-0.84;52.05
77526;BME280;66627;29.424;-98.496;2023-02-01T02:39:06;99979.65;;;-0.54;51.64
77526;BME280;66627;29.424;-98.496;2023-02-01T02:41:31;99979.35;;;-0.44;51.33
77526;BME280;66627;29.424;-98.496;2023-02-01T02:43:56;99985.97;;;0.15;51.23
77526;BME280;66627;29.424;-98.496;2023-02-01T02:46:22;99984.97;;;0.54;49.98
77526;BME280;66627;29.424;-98.496;2023-02-01T02:48:46;99990.21;;;0.89;50.48
77526;BME280;66627;29.424;-98.496;2023-02-01T02:51:11;99990.93;;;-0.08;50.52
77526;BME280;66627;29.424;-98.496;2023-02-01T02:53:35;99989.58;;;-0.20;50.56
77526;BME280;66627;29.424;-98.496;2023-02-01T02:55:58;99990.66;;;-0.26;51.95
77526;BME280;66627;29.424;-98.496;2023-02-01T02:58:23;99987.28;;;-0.26;51.39
77526;BME280;66627;29.424;-98.496;2023-02-01T03:00:49;99990.23;;;-0.66;52.39
77526;BME280;66627;29.424;-98.496;2023-02-01T03:03:14;99993.24;;;-1.55;53.30
77526;BME280;66627;29.424;-98.496;2023-02-01T03:05:43;99992.46;;;-1.41;53.60
77526;BME280;66627;29.424;-98.496;2023-02-01T03:08:11;99995.55;;;-0.51;52.50
77526;BME280;66627;29.424;-98.496;2023-02-01T03:10:37;99999.43;;;-0.68;51.94
77526;BME280;66627;29.424;-98.496;2023-02-01T03:13:02;100002.07;;;-0.64;52.46
77526;BME280;66627;29.424;-98.496;2023-02-01T03:15:23;100011.49;;;-0.84;51.65
77526;BME280;66627;29.424;-98.496;2023-02-01T03:17:47;100015.28;;;-0.46;51.91
77526;BME280;66627;29.424;-98.496;2023-02-01T03:20:13;100012.13;;;-0.40;50.69
77526;BME280;66627;29.424;-98.496;2023-02-01T03:22:39;100020.19;;;-0.41;51.77
77526;BME280;66627;29.424;-98.496;2023-02-01T03:25:07;100027.60;;;-1.10;52.98
77526;BME280;66627;29.424;-98.496;2023-02-01T03:27:32;100017.22;;;-0.94;52.93
77526;BME280;66627;29.424;-98.496;2023-02-01T03:29:59;100019.40;;;-0.59;51.83
77526;BME280;66627;29.424;-98.496;2023-02-01T03:32:19;100018.43;;;0.31;51.59
77526;BME280;66627;29.424;-98.496;2023-02-01T03:34:45;100008.87;;;-0.55;51.73
77526;BME280;66627;29.424;-98.496;2023-02-01T03:37:12;100014.68;;;0.11;50.71
77526;BME280;66627;29.424;-98.496;2023-02-01T03:39:41;100002.49;;;-0.15;50.76
77526;BME280;66627;29.424;-98.496;2023-02-01T03:42:02;100000.98;;;0.05;50.33
77526;BME280;66627;29.424;-98.496;2023-02-01T03:44:31;100004.56;;;0.37;50.14
77526;BME280;66627;29.424;-98.496;2023-02-01T03:46:54;99997.05;;;0.20;50.86
77526;BME280;66627;29.424;-98.496;2023-02-01T03:49:20;99992.16;;;-0.04;51.44
77526;BME280;66627;29.424;-98.496;2023-02-01T03:51:42;99987.45;;;-0.30;50.90
77526;BME280;66627;29.424;-98.496;2023-02-01T03:54:12;99990.17;;;-0.47;52.10
77526;BME280;66627;29.424;-98.496;2023-02-01T03:56:33;99991.95;;;0.02;50.86
77526;BME280;66627;29.424;-98.496;2023-02-01T03:58:58;99992.98;;;0.01;51.59
77526;BME280;66627;29.424;-98.496;2023-02-01T04:01:23;99996.96;;;-0.50;50.80
77526;BME280;66627;29.424;-98.496;2023-02-01T04:03:48;100008.38;;;0.15;50.60
77526;BME280;66627;29.424;-98.496;2023-02-01T04:06:14;100010.29;;;0.33;49.56
77526;BME280;66627;29.424;-98.496;2023-02-01T04:08:39;100005.64;;;-0.39;51.29
77526;BME280;66627;29.424;-98.496;2023-02-01T04:11:06;100002.94;;;-0.30;50.22
77526;BME280;66627;29.424;-98.496;2023-02-01T04:13:30;100002.87;;;-0.27;50.23
77526;BME280;66627;29.424;-98.496;2023-02-01T04:15:56;100005.55;;;-0.26;50.49
77526;BME280;66627;29.424;-98.496;2023-02-01T04:18:21;100004.54;;;-0.32;51.15
77526;BME280;66627;29.424;-98.496;2023-02-01T04:20:47;99997.12;;;-0.16;49.75
77526;BME280;66627;29.424;-98.496;2023-02-01T04:23:12;99983.50;;;-0.25;50.45
77526;BME280;66627;29.424;-98.496;2023-02-01T04:25:38;99994.91;;;-0.01;49.45
77526;BME280;66627;29.424;-98.496;2023-02-01T04:28:03;99991.85;;;0.41;49.42
77526;BME280;66627;29.424;-98.496;2023-02-01T04:30:29;99998.91;;;-0.00;50.60
77526;BME280;66627;29.424;-98.496;2023-02-01T04:32:54;100010.00;;;0.46;48.96
77526;BME280;66627;29.424;-98.496;2023-02-01T04:35:19;100022.12;;;-0.29;50.07
77526;BME280;66627;29.424;-98.496;2023-02-01T04:37:45;100020.68;;;0.49;49.45
77526;BME280;66627;29.424;-98.496;2023-02-01T04:40:11;100005.26;;;-0.31;50.51
77526;BME280;66627;29.424;-98.496;2023-02-01T04:42:35;99999.25;;;0.51;50.03
77526;BME280;66627;29.424;-98.496;2023-02-01T04:45:00;100002.57;;;0.25;49.23
77526;BME280;66627;29.424;-98.496;2023-02-01T04:47:26;100009.40;;;-0.47;49.76
77526;BME280;66627;29.424;-98.496;2023-02-01T04:49:52;100025.92;;;0.26;50.11
77526;BME280;66627;29.424;-98.496;2023-02-01T04:52:17;100048.94;;;-0.50;50.39
77526;BME280;66627;29.424;-98.496;2023-02-01T04:54:43;100060.02;;;-0.63;49.78
77526;BME280;66627;29.424;-98.496;2023-02-01T04:57:07;100049.72;;;0.20;49.27
77526;BME280;66627;29.424;-98.496;2023-02-01T04:59:32;100036.14;;;-0.46;50.02
77526;BME280;66627;29.424;-98.496;2023-02-01T05:01:58;100048.27;;;-0.02;49.76
77526;BME280;66627;29.424;-98.496;2023-02-01T05:04:23;100057.13;;;-0.83;50.26
77526;BME280;66627;29.424;-98.496;2023-02-01T05:06:48;100079.91;;;-0.75;50.17
77526;BME280;66627;29.424;-98.496;2023-02-01T05:09:13;100082.48;;;-1.11;49.87
77526;BME280;66627;29.424;-98.496;2023-02-01T05:11:39;100090.56;;;-0.85;50.37
77526;BME280;66627;29.424;-98.496;2023-02-01T05:14:04;100091.46;;;-0.99;50.32
77526;BME280;66627;29.424;-98.496;2023-02-01T05:16:29;100086.41;;;0.25;49.67
77526;BME280;66627;29.424;-98.496;2023-02-01T05:18:55;100083.97;;;-0.34;49.78
77526;BME280;66627;29.424;-98.496;2023-02-01T05:21:20;100074.52;;;-0.37;49.77
77526;BME280;66627;29.424;-98.496;2023-02-01T05:23:46;100074.08;;;-0.50;51.05
77526;BME280;66627;29.424;-98.496;2023-02-01T05:26:12;100082.36;;;-0.49;50.99
77526;BME280;66627;29.424;-98.496;2023-02-01T05:28:37;100078.23;;;-0.64;52.19
77526;BME280;66627;29.424;-98.496;2023-02-01T05:31:09;100074.28;;;-0.21;51.95
77526;BME280;66627;29.424;-98.496;2023-02-01T05:33:28;100076.78;;;-0.84;53.67
77526;BME280;66627;29.424;-98.496;2023-02-01T05:35:53;100064.51;;;-1.39;55.14
77526;BME280;66627;29.424;-98.496;2023-02-01T05:38:19;100075.37;;;-1.54;56.85
77526;BME280;66627;29.424;-98.496;2023-02-01T05:40:44;100087.94;;;-1.27;56.28
77526;BME280;66627;29.424;-98.496;2023-02-01T05:43:09;100078.29;;;-1.60;56.65
77526;BME280;66627;29.424;-98.496;2023-02-01T05:45:35;100079.99;;;-1.82;56.77
77526;BME280;66627;29.424;-98.496;2023-02-01T05:48:00;100080.10;;;-1.40;55.99
77526;BME280;66627;29.424;-98.496;2023-02-01T05:50:26;100073.81;;;-2.10;58.26
77526;BME280;66627;29.424;-98.496;2023-02-01T05:52:51;100072.38;;;-1.38;57.56
77526;BME280;66627;29.424;-98.496;2023-02-01T05:55:16;100077.33;;;-1.66;57.88
77526;BME280;66627;29.424;-98.496;2023-02-01T05:57:42;100086.44;;;-2.49;59.73
77526;BME280;66627;29.424;-98.496;2023-02-01T06:00:08;100103.72;;;-2.61;59.84
77526;BME280;66627;29.424;-98.496;2023-02-01T06:02:32;100107.33;;;-1.82;58.57
77526;BME280;66627;29.424;-98.496;2023-02-01T06:04:57;100092.49;;;-0.88;58.38
77526;BME280;66627;29.424;-98.496;2023-02-01T06:07:22;100086.92;;;-0.69;57.92
77526;BME280;66627;29.424;-98.496;2023-02-01T06:09:47;100088.40;;;-0.80;57.47
77526;BME280;66627;29.424;-98.496;2023-02-01T06:12:13;100105.41;;;-0.81;56.94
77526;BME280;66627;29.424;-98.496;2023-02-01T06:14:38;100120.63;;;-0.80;57.52
77526;BME280;66627;29.424;-98.496;2023-02-01T06:17:03;100131.29;;;-0.61;57.08
77526;BME280;66627;29.424;-98.496;2023-02-01T06:19:29;100125.96;;;-0.93;56.75
77526;BME280;66627;29.424;-98.496;2023-02-01T06:21:54;100146.96;;;-2.17;60.27
77526;BME280;66627;29.424;-98.496;2023-02-01T06:24:19;100139.45;;;-0.85;57.19
77526;BME280;66627;29.424;-98.496;2023-02-01T06:26:45;100123.12;;;-1.07;58.83
77526;BME280;66627;29.424;-98.496;2023-02-01T06:29:11;100112.13;;;-0.96;57.27
77526;BME280;66627;29.424;-98.496;2023-02-01T06:31:36;100084.06;;;-1.48;57.75
77526;BME280;66627;29.424;-98.496;2023-02-01T06:34:01;100049.99;;;-0.93;58.76
77526;BME280;66627;29.424;-98.496;2023-02-01T06:36:26;100012.15;;;-1.46;59.06
77526;BME280;66627;29.424;-98.496;2023-02-01T06:38:52;100021.29;;;-1.27;58.93
77526;BME280;66627;29.424;-98.496;2023-02-01T06:41:17;100017.19;;;-1.13;57.95
77526;BME280;66627;29.424;-98.496;2023-02-01T06:43:43;100009.89;;;-1.57;58.41
77526;BME280;66627;29.424;-98.496;2023-02-01T06:46:11;100030.09;;;-1.04;58.72
77526;BME280;66627;29.424;-98.496;2023-02-01T06:48:34;100021.98;;;-1.59;57.95
77526;BME280;66627;29.424;-98.496;2023-02-01T06:50:58;100014.28;;;-1.26;58.74
77526;BME280;66627;29.424;-98.496;2023-02-01T06:53:24;100017.26;;;-1.12;58.17
77526;BME280;66627;29.424;-98.496;2023-02-01T06:55:53;100009.35;;;-0.71;57.64
77526;BME280;66627;29.424;-98.496;2023-02-01T06:58:14;99973.43;;;-0.69;58.41
77526;BME280;66627;29.424;-98.496;2023-02-01T07:00:40;99978.30;;;-0.77;58.32
77526;BME280;66627;29.424;-98.496;2023-02-01T07:03:05;99987.91;;;-1.26;58.55
77526;BME280;66627;29.424;-98.496;2023-02-01T07:05:30;99993.88;;;-1.50;57.70
77526;BME280;66627;29.424;-98.496;2023-02-01T07:07:55;100009.11;;;-1.23;57.85
77526;BME280;66627;29.424;-98.496;2023-02-01T07:10:21;100009.53;;;-1.52;57.97
77526;BME280;66627;29.424;-98.496;2023-02-01T07:12:46;100026.64;;;-1.91;58.48
77526;BME280;66627;29.424;-98.496;2023-02-01T07:15:12;100047.25;;;-1.92;58.61
77526;BME280;66627;29.424;-98.496;2023-02-01T07:17:37;100091.52;;;-1.08;58.03
77526;BME280;66627;29.424;-98.496;2023-02-01T07:20:03;100113.45;;;-1.19;59.10
77526;BME280;66627;29.424;-98.496;2023-02-01T07:22:28;100093.75;;;-1.59;59.91
77526;BME280;66627;29.424;-98.496;2023-02-01T07:24:53;100072.75;;;-2.24;58.49
77526;BME280;66627;29.424;-98.496;2023-02-01T07:27:18;100077.62;;;-1.12;58.15
77526;BME280;66627;29.424;-98.496;2023-02-01T07:29:44;100093.77;;;-1.18;59.37
77526;BME280;66627;29.424;-98.496;2023-02-01T07:32:10;100079.91;;;-0.62;57.37
77526;BME280;66627;29.424;-98.496;2023-02-01T07:34:34;100051.65;;;-1.94;59.51
77526;BME280;66627;29.424;-98.496;2023-02-01T07:37:00;100057.08;;;-2.57;59.77
77526;BME280;66627;29.424;-98.496;2023-02-01T07:39:25;100054.33;;;-1.21;58.35
77526;BME280;66627;29.424;-98.496;2023-02-01T07:41:50;100026.39;;;-0.66;57.40
77526;BME280;66627;29.424;-98.496;2023-02-01T07:44:16;100011.72;;;-0.57;58.09
77526;BME280;66627;29.424;-98.496;2023-02-01T07:46:42;99984.70;;;-0.56;58.32
77526;BME280;66627;29.424;-98.496;2023-02-01T07:49:07;99969.94;;;-0.13;57.92
77526;BME280;66627;29.424;-98.496;2023-02-01T07:51:32;99976.10;;;-0.36;57.27
77526;BME280;66627;29.424;-98.496;2023-02-01T07:53:58;99970.62;;;-0.20;57.91
77526;BME280;66627;29.424;-98.496;2023-02-01T07:56:23;99937.62;;;-0.25;57.87
77526;BME280;66627;29.424;-98.496;2023-02-01T07:58:49;99924.40;;;-0.32;56.97
77526;BME280;66627;29.424;-98.496;2023-02-01T08:01:15;99935.40;;;-0.27;57.12
77526;BME280;66627;29.424;-98.496;2023-02-01T08:03:39;99930.61;;;-0.75;57.53
77526;BME280;66627;29.424;-98.496;2023-02-01T08:06:05;99910.75;;;-1.34;58.10
77526;BME280;66627;29.424;-98.496;2023-02-01T08:08:30;99923.78;;;-0.42;58.58
77526;BME280;66627;29.424;-98.496;2023-02-01T08:10:58;99924.52;;;-0.73;58.54
77526;BME280;66627;29.424;-98.496;2023-02-01T08:13:21;99916.26;;;-0.33;57.41
77526;BME280;66627;29.424;-98.496;2023-02-01T08:15:46;99924.17;;;-0.19;56.99
77526;BME280;66627;29.424;-98.496;2023-02-01T08:18:11;99932.52;;;-0.21;58.00
77526;BME280;66627;29.424;-98.496;2023-02-01T08:20:37;99947.96;;;-0.11;58.21
77526;BME280;66627;29.424;-98.496;2023-02-01T08:23:02;99954.99;;;-0.45;57.06
77526;BME280;66627;29.424;-98.496;2023-02-01T08:25:27;99967.32;;;-1.02;58.14
77526;BME280;66627;29.424;-98.496;2023-02-01T08:27:53;99975.52;;;-0.40;58.13
77526;BME280;66627;29.424;-98.496;2023-02-01T08:30:18;100005.78;;;0.35;56.67
77526;BME280;66627;29.424;-98.496;2023-02-01T08:32:44;100016.01;;;-0.11;57.55
77526;BME280;66627;29.424;-98.496;2023-02-01T08:35:09;100012.33;;;-0.30;56.44
77526;BME280;66627;29.424;-98.496;2023-02-01T08:37:34;100011.19;;;-0.39;57.37
77526;BME280;66627;29.424;-98.496;2023-02-01T08:39:59;100012.43;;;0.04;56.98
77526;BME280;66627;29.424;-98.496;2023-02-01T08:42:25;100006.68;;;0.30;57.33
77526;BME280;66627;29.424;-98.496;2023-02-01T08:44:50;100009.88;;;0.97;56.63
77526;BME280;66627;29.424;-98.496;2023-02-01T08:47:16;100020.06;;;0.70;55.18
77526;BME280;66627;29.424;-98.496;2023-02-01T08:49:41;100005.46;;;-0.28;57.11
77526;BME280;66627;29.424;-98.496;2023-02-01T08:52:06;99968.39;;;-0.63;57.77
77526;BME280;66627;29.424;-98.496;2023-02-01T08:54:32;99930.76;;;-0.40;58.20
77526;BME280;66627;29.424;-98.496;2023-02-01T08:56:57;99921.49;;;-0.18;57.62
77526;BME280;66627;29.424;-98.496;2023-02-01T08:59:23;99917.23;;;0.24;57.28
77526;BME280;66627;29.424;-98.496;2023-02-01T09:01:48;99908.50;;;-0.43;57.46
77526;BME280;66627;29.424;-98.496;2023-02-01T09:04:13;99908.29;;;-0.21;58.28
77526;BME280;66627;29.424;-98.496;2023-02-01T09:06:41;99930.33;;;-0.74;58.08
77526;BME280;66627;29.424;-98.496;2023-02-01T09:09:04;99962.70;;;0.41;56.77
77526;BME280;66627;29.424;-98.496;2023-02-01T09:11:30;99957.19;;;0.57;54.36
77526;BME280;66627;29.424;-98.496;2023-02-01T09:13:55;99930.42;;;0.58;56.85
77526;BME280;66627;29.424;-98.496;2023-02-01T09:16:20;99937.45;;;1.07;56.28
77526;BME280;66627;29.424;-98.496;2023-02-01T09:18:46;99962.36;;;0.68;56.84
77526;BME280;66627;29.424;-98.496;2023-02-01T09:21:11;99986.55;;;0.62;56.25
77526;BME280;66627;29.424;-98.496;2023-02-01T09:23:36;99991.68;;;0.55;56.60
77526;BME280;66627;29.424;-98.496;2023-02-01T09:26:03;99976.42;;;1.26;55.05
77526;BME280;66627;29.424;-98.496;2023-02-01T09:28:27;99963.85;;;1.15;55.23
77526;BME280;66627;29.424;-98.496;2023-02-01T09:30:56;99974.04;;;1.11;54.38
77526;BME280;66627;29.424;-98.496;2023-02-01T09:33:18;99939.87;;;0.00;57.48
77526;BME280;66627;29.424;-98.496;2023-02-01T09:35:43;99951.83;;;-0.40;56.66
77526;BME280;66627;29.424;-98.496;2023-02-01T09:38:09;99970.23;;;-0.16;56.52
77526;BME280;66627;29.424;-98.496;2023-02-01T09:40:35;99982.38;;;-0.05;57.35
77526;BME280;66627;29.424;-98.496;2023-02-01T09:43:16;99998.26;;;0.03;57.10
77526;BME280;66627;29.424;-98.496;2023-02-01T09:45:29;99997.01;;;-0.10;57.23
77526;BME280;66627;29.424;-98.496;2023-02-01T09:47:53;99995.05;;;-0.44;57.87
77526;BME280;66627;29.424;-98.496;2023-02-01T09:50:19;99987.42;;;-1.50;58.81
77526;BME280;66627;29.424;-98.496;2023-02-01T09:52:44;99977.29;;;-0.71;58.56
77526;BME280;66627;29.424;-98.496;2023-02-01T09:55:12;99979.86;;;-0.29;57.47
77526;BME280;66627;29.424;-98.496;2023-02-01T09:57:41;99980.25;;;-0.11;57.63
77526;BME280;66627;29.424;-98.496;2023-02-01T10:00:03;99975.77;;;-0.22;57.16
77526;BME280;66627;29.424;-98.496;2023-02-01T10:02:25;99974.93;;;-0.30;57.86
77526;BME280;66627;29.424;-98.496;2023-02-01T10:04:48;99972.01;;;-0.20;57.25
77526;BME280;66627;29.424;-98.496;2023-02-01T10:07:24;99951.21;;;-0.03;56.75
77526;BME280;66627;29.424;-98.496;2023-02-01T10:09:49;99936.91;;;0.65;56.08
77526;BME280;66627;29.424;-98.496;2023-02-01T10:14:38;99965.09;;;-0.23;57.02
77526;BME280;66627;29.424;-98.496;2023-02-01T10:17:02;99958.98;;;-0.25;57.14
77526;BME280;66627;29.424;-98.496;2023-02-01T10:19:29;99974.54;;;-0.27;56.90
77526;BME280;66627;29.424;-98.496;2023-02-01T10:21:54;99975.54;;;-0.57;56.59
77526;BME280;66627;29.424;-98.496;2023-02-01T10:24:22;99976.31;;;0.32;56.37
77526;BME280;66627;29.424;-98.496;2023-02-01T10:26:39;99976.37;;;0.06;56.17
77526;BME280;66627;29.424;-98.496;2023-02-01T10:29:03;99991.74;;;-0.33;57.86
77526;BME280;66627;29.424;-98.496;2023-02-01T10:31:30;99991.27;;;0.30;56.45
77526;BME280;66627;29.424;-98.496;2023-02-01T10:33:57;99982.06;;;0.85;54.97
77526;BME280;66627;29.424;-98.496;2023-02-01T10:36:23;99989.70;;;0.65;55.90
77526;BME280;66627;29.424;-98.496;2023-02-01T10:38:44;99998.55;;;0.40;56.92
77526;BME280;66627;29.424;-98.496;2023-02-01T10:41:15;99985.55;;;0.86;55.25
77526;BME280;66627;29.424;-98.496;2023-02-01T10:43:34;99970.94;;;0.87;55.17
77526;BME280;66627;29.424;-98.496;2023-02-01T10:46:00;99964.51;;;0.73;55.75
77526;BME280;66627;29.424;-98.496;2023-02-01T10:48:25;99973.50;;;1.25;54.88
77526;BME280;66627;29.424;-98.496;2023-02-01T10:50:56;99957.31;;;0.76;55.58
77526;BME280;66627;29.424;-98.496;2023-02-01T10:53:18;99928.21;;;0.44;56.08
77526;BME280;66627;29.424;-98.496;2023-02-01T10:55:47;99903.35;;;0.06;57.35
77526;BME280;66627;29.424;-98.496;2023-02-01T10:58:10;99895.87;;;0.32;56.62
77526;BME280;66627;29.424;-98.496;2023-02-01T11:00:42;99917.64;;;0.24;57.44
77526;BME280;66627;29.424;-98.496;2023-02-01T11:02:57;99959.00;;;0.13;56.99
77526;BME280;66627;29.424;-98.496;2023-02-01T11:05:22;99946.20;;;0.52;55.84
77526;BME280;66627;29.424;-98.496;2023-02-01T11:07:51;99921.02;;;0.49;56.70
77526;BME280;66627;29.424;-98.496;2023-02-01T11:12:38;99929.96;;;0.15;56.75
77526;BME280;66627;29.424;-98.496;2023-02-01T11:15:14;99948.49;;;-0.48;58.00
77526;BME280;66627;29.424;-98.496;2023-02-01T11:17:34;99963.14;;;0.52;56.11
77526;BME280;66627;29.424;-98.496;2023-02-01T11:19:58;99951.50;;;0.57;56.06
77526;BME280;66627;29.424;-98.496;2023-02-01T11:22:19;99943.40;;;0.23;56.67
77526;BME280;66627;29.424;-98.496;2023-02-01T11:24:46;99959.45;;;0.21;56.01
77526;BME280;66627;29.424;-98.496;2023-02-01T11:27:16;99954.00;;;0.32;56.31
77526;BME280;66627;29.424;-98.496;2023-02-01T11:29:38;99936.37;;;0.31;56.29
77526;BME280;66627;29.424;-98.496;2023-02-01T11:32:01;99932.27;;;0.63;55.54
77526;BME280;66627;29.424;-98.496;2023-02-01T11:34:28;99939.86;;;1.06;55.27
77526;BME280;66627;29.424;-98.496;2023-02-01T11:36:51;99924.94;;;-0.32;57.36
77526;BME280;66627;29.424;-98.496;2023-02-01T11:39:23;99914.89;;;0.15;57.84
77526;BME280;66627;29.424;-98.496;2023-02-01T11:41:43;99909.94;;;0.16;56.73
77526;BME280;66627;29.424;-98.496;2023-02-01T11:44:18;99908.60;;;-0.19;57.37
77526;BME280;66627;29.424;-98.496;2023-02-01T11:46:34;99914.35;;;-0.12;56.62
77526;BME280;66627;29.424;-98.496;2023-02-01T11:51:39;99916.53;;;0.33;56.76
77526;BME280;66627;29.424;-98.496;2023-02-01T11:53:58;99920.07;;;0.39;57.39
77526;BME280;66627;29.424;-98.496;2023-02-01T11:56:22;99924.12;;;0.67;56.40
77526;BME280;66627;29.424;-98.496;2023-02-01T11:58:58;99926.35;;;0.49;56.10
77526;BME280;66627;29.424;-98.496;2023-02-01T12:01:16;99940.63;;;1.29;56.13
77526;BME280;66627;29.424;-98.496;2023-02-01T12:03:47;99943.53;;;0.77;56.08
77526;BME280;66627;29.424;-98.496;2023-02-01T12:05:59;99942.21;;;1.13;55.44
77526;BME280;66627;29.424;-98.496;2023-02-01T12:08:34;99942.50;;;1.55;54.69
77526;BME280;66627;29.424;-98.496;2023-02-01T12:10:56;99943.74;;;1.15;55.35
77526;BME280;66627;29.424;-98.496;2023-02-01T12:13:32;99936.15;;;0.94;55.14
77526;BME280;66627;29.424;-98.496;2023-02-01T12:15:52;99934.74;;;0.84;55.35
77526;BME280;66627;29.424;-98.496;2023-02-01T12:23:03;99923.05;;;1.36;55.60
77526;BME280;66627;29.424;-98.496;2023-02-01T12:25:33;99924.70;;;1.05;54.91
77526;BME280;66627;29.424;-98.496;2023-02-01T12:28:00;99916.46;;;0.78;55.75
77526;BME280;66627;29.424;-98.496;2023-02-01T12:30:21;99908.38;;;1.37;54.77
77526;BME280;66627;29.424;-98.496;2023-02-01T12:32:47;99911.88;;;0.73;55.41
77526;BME280;66627;29.424;-98.496;2023-02-01T12:37:36;99922.92;;;0.81;54.79
77526;BME280;66627;29.424;-98.496;2023-02-01T12:39:58;99926.18;;;0.82;56.13
77526;BME280;66627;29.424;-98.496;2023-02-01T12:42:18;99932.57;;;0.98;54.76
77526;BME280;66627;29.424;-98.496;2023-02-01T12:44:46;99941.27;;;1.18;55.53
77526;BME280;66627;29.424;-98.496;2023-02-01T12:47:14;99925.23;;;1.17;55.38